Time;durP1;ratioP1;P1;durP2;ratioP2;P2;SDS_P1;SDS_P2;PMS_P1;PMS_P2;Temp;Humidity;BMP_temperature;BMP_pressure;BME280_temperature;BME280_humidity;BME280_pressure;Samples;Min_cycle;Max_cycle;Signal;HPM_P1;HPM_P2
2021/05/26 00:01:38;;;;;;;5.45;2.90;;;;;;;;;;5095734;28;20036;-68
2021/05/26 00:04:04;;;;;;;9.82;3.33;;;;;;;;;;5093946;28;20032;-67
2021/05/26 00:06:30;;;;;;;6.20;2.85;;;;;;;;;;5095998;28;20047;-67
2021/05/26 00:08:56;;;;;;;5.13;2.70;;;;;;;;;;5101727;28;20524;-68
2021/05/26 00:11:23;;;;;;;3.13;2.60;;;;;;;;;;5111118;28;20028;-68
2021/05/26 00:13:49;;;;;;;4.53;2.90;;;;;;;;;;5100565;28;20024;-67
2021/05/26 00:16:16;;;;;;;5.10;2.97;;;;;;;;;;5101653;28;20107;-68
2021/05/26 00:18:42;;;;;;;4.38;3.22;;;;;;;;;;5092556;28;20123;-69
2021/05/26 00:21:09;;;;;;;3.83;2.92;;;;;;;;;;5100580;28;20104;-68
2021/05/26 00:23:36;;;;;;;4.88;2.90;;;;;;;;;;5090635;28;20051;-67
2021/05/26 00:26:02;;;;;;;5.68;2.83;;;;;;;;;;5097666;28;20103;-67
2021/05/26 00:28:29;;;;;;;4.15;2.90;;;;;;;;;;5090531;28;20039;-68
2021/05/26 00:30:56;;;;;;;9.73;3.63;;;;;;;;;;5091749;28;20043;-68
2021/05/26 00:33:23;;;;;;;4.20;2.88;;;;;;;;;;5095187;28;20024;-66
2021/05/26 00:35:49;;;;;;;4.93;3.25;;;;;;;;;;5102158;28;20032;-68
2021/05/26 00:38:16;;;;;;;4.25;3.00;;;;;;;;;;5090883;28;20080;-68
2021/05/26 00:40:42;;;;;;;9.07;3.20;;;;;;;;;;5090464;28;20033;-68
2021/05/26 00:43:08;;;;;;;6.07;2.95;;;;;;;;;;5099837;28;20047;-67
2021/05/26 00:45:35;;;;;;;5.40;3.15;;;;;;;;;;5101804;28;20027;-68
2021/05/26 00:48:02;;;;;;;7.30;3.17;;;;;;;;;;5098895;28;20039;-67
2021/05/26 00:50:33;;;;;;;6.35;3.58;;;;;;;;;;5089679;28;20032;-68
2021/05/26 00:53:13;;;;;;;4.35;2.60;;;;;;;;;;5091365;28;20382;-66
2021/05/26 00:55:40;;;;;;;8.35;3.30;;;;;;;;;;5101376;28;20074;-67
2021/05/26 00:58:06;;;;;;;6.00;3.13;;;;;;;;;;5099111;28;20020;-67
2021/05/26 01:00:34;;;;;;;3.63;3.08;;;;;;;;;;5090549;28;20024;-67
2021/05/26 01:03:00;;;;;;;10.32;4.07;;;;;;;;;;5090168;28;20040;-68
2021/05/26 01:05:27;;;;;;;4.38;2.80;;;;;;;;;;5103641;28;20032;-68
2021/05/26 01:07:53;;;;;;;6.10;3.78;;;;;;;;;;5083251;28;20031;-68
2021/05/26 01:10:21;;;;;;;4.88;2.50;;;;;;;;;;5066609;28;1262195;-69
2021/05/26 01:12:47;;;;;;;6.32;3.45;;;;;;;;;;5107318;28;20038;-67
2021/05/26 01:15:14;;;;;;;9.27;4.18;;;;;;;;;;5092041;28;20412;-67
2021/05/26 01:17:41;;;;;;;4.47;2.78;;;;;;;;;;5105299;28;20024;-67
2021/05/26 01:20:09;;;;;;;4.72;2.72;;;;;;;;;;5109288;28;20561;-68
2021/05/26 01:22:36;;;;;;;6.45;3.70;;;;;;;;;;5090737;28;20024;-68
2021/05/26 01:25:02;;;;;;;6.72;2.70;;;;;;;;;;5090644;28;20431;-68
2021/05/26 01:27:28;;;;;;;5.07;2.60;;;;;;;;;;5096273;28;20038;-67
2021/05/26 01:29:59;;;;;;;6.47;2.97;;;;;;;;;;5095964;28;20089;-67
2021/05/26 01:32:25;;;;;;;3.83;2.70;;;;;;;;;;5090577;28;20036;-68
2021/05/26 01:34:51;;;;;;;8.88;2.78;;;;;;;;;;5106296;28;20035;-68
2021/05/26 01:37:17;;;;;;;7.30;3.35;;;;;;;;;;5099572;28;20027;-67
2021/05/26 01:39:47;;;;;;;4.78;2.72;;;;;;;;;;5110761;28;20027;-68
2021/05/26 01:42:27;;;;;;;5.15;2.90;;;;;;;;;;5089278;28;20032;-67
2021/05/26 01:44:53;;;;;;;4.35;2.75;;;;;;;;;;5105376;28;20032;-67
2021/05/26 01:47:19;;;;;;;3.85;2.70;;;;;;;;;;5092594;28;20032;-67
2021/05/26 01:49:45;;;;;;;4.18;2.80;;;;;;;;;;5104259;28;20473;-68
2021/05/26 01:52:11;;;;;;;4.20;2.58;;;;;;;;;;5090197;28;20032;-68
2021/05/26 01:54:38;;;;;;;4.43;2.90;;;;;;;;;;5071871;28;20021;-68
2021/05/26 01:57:04;;;;;;;6.70;2.85;;;;;;;;;;5109601;28;20027;-68
2021/05/26 01:59:30;;;;;;;9.20;3.33;;;;;;;;;;5082703;28;20028;-69
2021/05/26 02:01:56;;;;;;;4.63;2.85;;;;;;;;;;5094092;28;20028;-67
2021/05/26 02:04:22;;;;;;;6.45;3.38;;;;;;;;;;5100278;28;20115;-67
2021/05/26 02:07:00;;;;;;;5.65;2.90;;;;;;;;;;5100899;28;20032;-70
2021/05/26 02:09:27;;;;;;;7.60;2.90;;;;;;;;;;5089743;28;20044;-67
2021/05/26 02:14:37;;;;;;;4.03;2.80;;;;;;;;;;5104194;28;20042;-67
2021/05/26 02:17:03;;;;;;;6.47;3.20;;;;;;;;;;5109724;28;20032;-67
2021/05/26 02:19:29;;;;;;;8.05;3.28;;;;;;;;;;5104365;28;20038;-69
2021/05/26 02:21:56;;;;;;;7.10;3.33;;;;;;;;;;5091392;28;20035;-69
2021/05/26 02:24:22;;;;;;;5.75;2.80;;;;;;;;;;5096619;28;20081;-68
2021/05/26 02:26:48;;;;;;;12.73;3.22;;;;;;;;;;5105427;27;20032;-68
2021/05/26 02:29:14;;;;;;;8.77;2.80;;;;;;;;;;5130486;27;20543;-68
2021/05/26 02:31:40;;;;;;;7.03;3.00;;;;;;;;;;5097314;28;20024;-68
2021/05/26 02:34:06;;;;;;;5.60;2.83;;;;;;;;;;5098206;28;20624;-69
2021/05/26 02:36:32;;;;;;;4.65;3.13;;;;;;;;;;5093277;28;20027;-67
2021/05/26 02:38:58;;;;;;;3.53;2.90;;;;;;;;;;5099482;28;20030;-68
2021/05/26 02:41:24;;;;;;;6.25;2.80;;;;;;;;;;5103777;28;20482;-66
2021/05/26 02:43:50;;;;;;;5.85;2.90;;;;;;;;;;5094957;27;20081;-68
2021/05/26 02:46:16;;;;;;;6.68;2.80;;;;;;;;;;5094279;28;20031;-68
2021/05/26 02:48:42;;;;;;;5.15;2.70;;;;;;;;;;5096373;28;20039;-68
2021/05/26 02:51:08;;;;;;;7.18;2.55;;;;;;;;;;5089291;28;20051;-68
2021/05/26 02:53:35;;;;;;;7.38;3.33;;;;;;;;;;5095211;28;20080;-69
2021/05/26 02:56:01;;;;;;;9.68;3.75;;;;;;;;;;5109334;28;20083;-67
2021/05/26 02:58:27;;;;;;;5.97;3.35;;;;;;;;;;5106934;28;20028;-69
2021/05/26 03:00:53;;;;;;;4.25;2.72;;;;;;;;;;5089363;28;20039;-67
2021/05/26 03:03:19;;;;;;;6.20;3.33;;;;;;;;;;5092290;28;20031;-68
2021/05/26 03:05:45;;;;;;;7.32;3.10;;;;;;;;;;5089471;28;20513;-67
2021/05/26 03:08:11;;;;;;;4.55;2.95;;;;;;;;;;5097153;28;20024;-68
2021/05/26 03:10:37;;;;;;;6.93;3.00;;;;;;;;;;5109262;28;20429;-67
2021/05/26 03:13:03;;;;;;;5.70;3.53;;;;;;;;;;5090964;28;20024;-68
2021/05/26 03:15:29;;;;;;;5.03;3.22;;;;;;;;;;5094434;28;20753;-69
2021/05/26 03:17:55;;;;;;;6.72;2.95;;;;;;;;;;5105374;28;20038;-69
2021/05/26 03:20:21;;;;;;;6.55;3.53;;;;;;;;;;5088736;28;20499;-67
2021/05/26 03:22:47;;;;;;;7.03;3.38;;;;;;;;;;5089238;28;20028;-68
2021/05/26 03:25:14;;;;;;;5.35;2.90;;;;;;;;;;5091192;28;20028;-68
2021/05/26 03:27:40;;;;;;;4.90;3.50;;;;;;;;;;5088750;28;20024;-67
2021/05/26 03:30:10;;;;;;;6.30;3.08;;;;;;;;;;5089318;28;20129;-67
2021/05/26 03:32:37;;;;;;;8.13;3.17;;;;;;;;;;5095837;28;20108;-69
2021/05/26 03:35:04;;;;;;;4.57;3.05;;;;;;;;;;5098926;28;20095;-69
2021/05/26 03:37:30;;;;;;;4.35;3.30;;;;;;;;;;5099699;28;20111;-67
2021/05/26 03:39:56;;;;;;;5.60;3.80;;;;;;;;;;5087370;28;20085;-67
2021/05/26 03:42:22;;;;;;;8.70;3.35;;;;;;;;;;5109400;28;20039;-68
2021/05/26 03:44:48;;;;;;;8.00;3.55;;;;;;;;;;5097788;28;20133;-68
2021/05/26 03:47:15;;;;;;;5.63;3.20;;;;;;;;;;5088707;28;20132;-67
2021/05/26 03:49:41;;;;;;;4.82;3.40;;;;;;;;;;5089207;28;20528;-69
2021/05/26 03:52:07;;;;;;;5.25;2.97;;;;;;;;;;5088967;28;20039;-68
2021/05/26 03:54:34;;;;;;;4.60;3.15;;;;;;;;;;5075462;28;20024;-68
2021/05/26 03:57:01;;;;;;;7.65;3.60;;;;;;;;;;5092323;28;20020;-68
2021/05/26 03:59:27;;;;;;;7.88;3.70;;;;;;;;;;5098183;28;20560;-68
2021/05/26 04:01:53;;;;;;;4.75;3.17;;;;;;;;;;5102701;28;20069;-68
2021/05/26 04:04:19;;;;;;;4.78;3.17;;;;;;;;;;5104317;28;20151;-68
2021/05/26 04:06:45;;;;;;;3.55;2.95;;;;;;;;;;5098374;28;20032;-69
2021/05/26 04:09:11;;;;;;;7.00;3.35;;;;;;;;;;5101388;28;20044;-66
2021/05/26 04:11:37;;;;;;;3.53;2.97;;;;;;;;;;5112413;28;20110;-68
2021/05/26 04:14:03;;;;;;;6.80;3.70;;;;;;;;;;5102167;28;20028;-68
2021/05/26 04:16:29;;;;;;;7.07;3.83;;;;;;;;;;5102064;28;20035;-67
2021/05/26 04:18:56;;;;;;;5.65;3.42;;;;;;;;;;5098273;28;20112;-68
2021/05/26 04:21:22;;;;;;;7.53;3.72;;;;;;;;;;5091879;28;20039;-68
2021/05/26 04:23:48;;;;;;;6.47;3.63;;;;;;;;;;5095146;28;20618;-69
2021/05/26 04:26:14;;;;;;;4.95;3.53;;;;;;;;;;5093728;28;20028;-68
2021/05/26 04:28:44;;;;;;;5.57;3.22;;;;;;;;;;5092100;28;20099;-67
2021/05/26 04:31:11;;;;;;;10.85;3.70;;;;;;;;;;5091676;28;20024;-68
2021/05/26 04:33:37;;;;;;;4.25;3.28;;;;;;;;;;5107897;28;20031;-69
2021/05/26 04:36:03;;;;;;;5.78;3.60;;;;;;;;;;5091956;28;20819;-69
2021/05/26 04:38:29;;;;;;;4.95;3.33;;;;;;;;;;5095529;28;20063;-69
2021/05/26 04:40:55;;;;;;;6.97;3.65;;;;;;;;;;5092301;28;20032;-68
2021/05/26 04:43:22;;;;;;;9.20;4.00;;;;;;;;;;5091667;28;20028;-68
2021/05/26 04:45:48;;;;;;;6.63;3.78;;;;;;;;;;5107822;28;20040;-67
2021/05/26 04:48:14;;;;;;;5.20;3.70;;;;;;;;;;5097853;28;20049;-67
2021/05/26 04:50:40;;;;;;;6.50;3.50;;;;;;;;;;5091296;28;20507;-68
2021/05/26 04:53:06;;;;;;;7.57;3.80;;;;;;;;;;5099656;28;20031;-67
2021/05/26 04:55:32;;;;;;;6.68;3.95;;;;;;;;;;5105651;28;20131;-68
2021/05/26 04:58:02;;;;;;;4.90;3.17;;;;;;;;;;5104921;28;20066;-69
2021/05/26 05:00:28;;;;;;;8.05;3.50;;;;;;;;;;5097369;28;20024;-68
2021/05/26 05:02:56;;;;;;;6.28;3.72;;;;;;;;;;5091406;28;20032;-67
2021/05/26 05:05:22;;;;;;;4.47;3.25;;;;;;;;;;5093610;28;20106;-66
2021/05/26 05:07:48;;;;;;;6.63;3.67;;;;;;;;;;5090065;28;20028;-68
2021/05/26 05:10:15;;;;;;;6.40;3.00;;;;;;;;;;5108079;28;20443;-66
2021/05/26 05:12:41;;;;;;;6.13;3.65;;;;;;;;;;5111178;28;20031;-69
2021/05/26 05:15:07;;;;;;;8.82;4.13;;;;;;;;;;5095057;28;20024;-68
2021/05/26 05:17:34;;;;;;;4.20;2.92;;;;;;;;;;5109227;28;20032;-69
2021/05/26 05:20:00;;;;;;;5.88;3.92;;;;;;;;;;5110929;28;20031;-68
2021/05/26 05:22:26;;;;;;;8.65;5.35;;;;;;;;;;5110888;28;20027;-68
2021/05/26 05:24:52;;;;;;;8.27;3.95;;;;;;;;;;5109285;28;20024;-68
2021/05/26 05:27:18;;;;;;;5.68;3.47;;;;;;;;;;5102953;28;20864;-68
2021/05/26 05:29:46;;;;;;;6.47;3.63;;;;;;;;;;5090491;28;20028;-69
2021/05/26 05:32:13;;;;;;;5.82;4.07;;;;;;;;;;5094937;28;20035;-68
2021/05/26 05:34:39;;;;;;;7.78;3.53;;;;;;;;;;5099953;28;20103;-69
2021/05/26 05:37:05;;;;;;;6.80;3.78;;;;;;;;;;5106317;28;20068;-68
2021/05/26 05:39:31;;;;;;;7.38;3.95;;;;;;;;;;5106716;28;20024;-68
2021/05/26 05:41:57;;;;;;;5.15;3.58;;;;;;;;;;5090995;28;20490;-68
2021/05/26 05:44:23;;;;;;;7.57;4.22;;;;;;;;;;5097499;28;20042;-68
2021/05/26 05:46:49;;;;;;;4.88;3.70;;;;;;;;;;5110533;28;20031;-68
2021/05/26 05:49:15;;;;;;;6.45;3.63;;;;;;;;;;5104489;28;20028;-68
2021/05/26 05:51:41;;;;;;;5.40;4.13;;;;;;;;;;5089850;28;20059;-68
2021/05/26 05:54:08;;;;;;;5.00;4.38;;;;;;;;;;5098220;28;20483;-68
2021/05/26 05:56:34;;;;;;;5.25;3.40;;;;;;;;;;5089835;28;20028;-68
2021/05/26 05:59:00;;;;;;;8.57;4.05;;;;;;;;;;5101049;28;20024;-68
2021/05/26 06:01:26;;;;;;;7.60;3.40;;;;;;;;;;5090072;28;20024;-68
2021/05/26 06:03:52;;;;;;;6.80;4.00;;;;;;;;;;5108548;28;20062;-68
2021/05/26 06:06:18;;;;;;;8.07;3.40;;;;;;;;;;5095280;28;20024;-68
2021/05/26 06:08:44;;;;;;;5.93;3.80;;;;;;;;;;5087834;28;20048;-67
2021/05/26 06:11:10;;;;;;;6.68;3.65;;;;;;;;;;5088152;28;20064;-67
2021/05/26 06:13:36;;;;;;;4.80;3.70;;;;;;;;;;5094754;28;20030;-69
2021/05/26 06:16:02;;;;;;;6.07;3.53;;;;;;;;;;5078735;28;20028;-67
2021/05/26 06:18:29;;;;;;;4.80;4.18;;;;;;;;;;5094176;28;20032;-69
2021/05/26 06:20:55;;;;;;;5.05;4.55;;;;;;;;;;5088959;28;20118;-68
2021/05/26 06:23:21;;;;;;;6.50;3.78;;;;;;;;;;5089560;28;20391;-68
2021/05/26 06:25:47;;;;;;;5.60;3.42;;;;;;;;;;5089001;28;20031;-68
2021/05/26 06:28:13;;;;;;;6.32;3.55;;;;;;;;;;5089459;28;20039;-68
2021/05/26 06:30:39;;;;;;;5.15;3.47;;;;;;;;;;5089324;28;20024;-67
2021/05/26 06:33:05;;;;;;;4.90;3.50;;;;;;;;;;5089083;28;20107;-68
2021/05/26 06:35:31;;;;;;;6.05;3.50;;;;;;;;;;5089788;28;20020;-68
2021/05/26 06:37:57;;;;;;;5.07;3.25;;;;;;;;;;5089634;28;20490;-69
2021/05/26 06:40:23;;;;;;;9.25;4.57;;;;;;;;;;5103240;28;20028;-68
2021/05/26 06:42:49;;;;;;;3.70;3.28;;;;;;;;;;5109470;28;20068;-68
2021/05/26 06:45:15;;;;;;;5.05;2.90;;;;;;;;;;5109388;28;20030;-68
2021/05/26 06:47:42;;;;;;;6.18;3.50;;;;;;;;;;5109527;28;20032;-68
2021/05/26 06:50:08;;;;;;;5.25;3.22;;;;;;;;;;5109617;28;20024;-68
2021/05/26 06:52:34;;;;;;;7.45;3.55;;;;;;;;;;5109921;28;20043;-69
2021/05/26 06:55:00;;;;;;;6.80;3.35;;;;;;;;;;5108183;28;20047;-69
2021/05/26 06:57:26;;;;;;;7.75;3.63;;;;;;;;;;5106265;28;20431;-69
2021/05/26 06:59:52;;;;;;;6.57;3.70;;;;;;;;;;5089462;28;20062;-69
2021/05/26 07:02:18;;;;;;;4.32;3.60;;;;;;;;;;5089499;28;20024;-69
2021/05/26 07:04:44;;;;;;;4.53;3.13;;;;;;;;;;5093904;28;20035;-69
2021/05/26 07:07:10;;;;;;;8.20;4.03;;;;;;;;;;5100355;28;20432;-69
2021/05/26 07:09:37;;;;;;;7.72;4.82;;;;;;;;;;5108642;28;20074;-70
2021/05/26 07:12:03;;;;;;;7.82;3.67;;;;;;;;;;5106217;28;20036;-68
2021/05/26 07:14:29;;;;;;;10.23;4.75;;;;;;;;;;5094785;28;20382;-68
2021/05/26 07:16:55;;;;;;;4.78;3.75;;;;;;;;;;5088966;28;20047;-69
2021/05/26 07:19:21;;;;;;;5.53;3.10;;;;;;;;;;5090195;28;20095;-69
2021/05/26 07:21:47;;;;;;;3.45;3.10;;;;;;;;;;5093018;28;20062;-69
2021/05/26 07:24:14;;;;;;;5.88;3.97;;;;;;;;;;5092441;28;20028;-69
2021/05/26 07:26:40;;;;;;;5.55;3.92;;;;;;;;;;5099695;28;20059;-70
2021/05/26 07:29:06;;;;;;;5.47;3.47;;;;;;;;;;5100086;28;20031;-69
2021/05/26 07:31:32;;;;;;;5.15;3.30;;;;;;;;;;5097716;28;20036;-69
2021/05/26 07:33:59;;;;;;;6.43;3.45;;;;;;;;;;5099086;28;20523;-69
2021/05/26 07:36:25;;;;;;;9.25;3.80;;;;;;;;;;5107096;28;20546;-69
2021/05/26 07:38:51;;;;;;;4.68;3.47;;;;;;;;;;5097187;28;20028;-67
2021/05/26 07:41:17;;;;;;;6.50;4.45;;;;;;;;;;5100838;28;20028;-71
2021/05/26 07:43:43;;;;;;;5.40;3.20;;;;;;;;;;5095108;28;20436;-70
2021/05/26 07:46:11;;;;;;;7.70;3.55;;;;;;;;;;5111257;28;20039;-70
2021/05/26 07:48:37;;;;;;;5.38;3.30;;;;;;;;;;5106379;28;20035;-69
2021/05/26 07:51:04;;;;;;;6.85;2.90;;;;;;;;;;5094685;28;20028;-69
2021/05/26 07:53:30;;;;;;;6.43;3.72;;;;;;;;;;5092826;28;20024;-68
2021/05/26 07:55:57;;;;;;;6.45;3.53;;;;;;;;;;5105877;28;20030;-69
2021/05/26 07:58:23;;;;;;;6.35;3.72;;;;;;;;;;5093961;28;20031;-69
2021/05/26 08:00:49;;;;;;;4.55;3.03;;;;;;;;;;5096128;28;20028;-70
2021/05/26 08:03:15;;;;;;;6.00;3.10;;;;;;;;;;5095727;28;20020;-69
2021/05/26 08:05:41;;;;;;;7.50;3.45;;;;;;;;;;5094297;28;20027;-71
2021/05/26 08:08:07;;;;;;;4.90;3.67;;;;;;;;;;5092385;28;20064;-67
2021/05/26 08:10:33;;;;;;;8.88;3.85;;;;;;;;;;5096617;28;20055;-71
2021/05/26 08:13:00;;;;;;;6.82;3.60;;;;;;;;;;5096029;28;20157;-69
2021/05/26 08:15:26;;;;;;;5.85;3.55;;;;;;;;;;5104260;28;20027;-71
2021/05/26 08:17:52;;;;;;;4.28;3.40;;;;;;;;;;5087338;28;20038;-70
2021/05/26 08:20:18;;;;;;;5.65;4.05;;;;;;;;;;5096743;28;20039;-68
2021/05/26 08:22:44;;;;;;;8.15;3.28;;;;;;;;;;5101948;28;20032;-70
2021/05/26 08:25:10;;;;;;;6.22;3.70;;;;;;;;;;5096381;28;20028;-69
2021/05/26 08:27:37;;;;;;;6.90;3.78;;;;;;;;;;5092065;28;20106;-68
2021/05/26 08:30:05;;;;;;;6.60;3.60;;;;;;;;;;5096054;28;20039;-68
2021/05/26 08:32:31;;;;;;;5.60;3.78;;;;;;;;;;5094763;28;20036;-67
2021/05/26 08:34:57;;;;;;;5.22;3.47;;;;;;;;;;5096268;28;20020;-69
2021/05/26 08:37:23;;;;;;;4.45;3.20;;;;;;;;;;5104769;28;20036;-70
2021/05/26 08:39:49;;;;;;;8.23;3.45;;;;;;;;;;5094538;28;20754;-69
2021/05/26 08:42:19;;;;;;;6.55;3.20;;;;;;;;;;5103222;28;20081;-69
2021/05/26 08:44:46;;;;;;;6.50;3.42;;;;;;;;;;5107442;28;20494;-70
2021/05/26 08:47:16;;;;;;;4.22;3.20;;;;;;;;;;5092793;28;20031;-68
2021/05/26 08:49:46;;;;;;;6.78;3.60;;;;;;;;;;5106765;28;20028;-67
2021/05/26 08:52:14;;;;;;;6.22;3.38;;;;;;;;;;5092685;28;20039;-70
2021/05/26 08:54:42;;;;;;;8.18;3.45;;;;;;;;;;5098641;28;20115;-68
2021/05/26 08:57:09;;;;;;;6.13;3.47;;;;;;;;;;5104039;28;20089;-67
2021/05/26 08:59:35;;;;;;;12.13;3.80;;;;;;;;;;5098191;28;20028;-68
2021/05/26 09:02:01;;;;;;;5.03;2.90;;;;;;;;;;5109891;28;20035;-67
2021/05/26 09:04:30;;;;;;;5.68;3.08;;;;;;;;;;5109352;28;20036;-70
2021/05/26 09:07:10;;;;;;;4.38;3.17;;;;;;;;;;5099765;28;20027;-68
2021/05/26 09:09:47;;;;;;;5.38;2.90;;;;;;;;;;5107649;28;20049;-67
2021/05/26 09:12:13;;;;;;;5.75;2.95;;;;;;;;;;5104981;28;20042;-67
2021/05/26 09:14:39;;;;;;;6.70;3.65;;;;;;;;;;5096827;28;20036;-67
2021/05/26 09:17:12;;;;;;;5.35;3.28;;;;;;;;;;5099740;28;20028;-70
2021/05/26 09:19:39;;;;;;;5.47;3.05;;;;;;;;;;5099512;28;20516;-69
2021/05/26 09:22:15;;;;;;;5.60;3.33;;;;;;;;;;5104677;28;20032;-68
2021/05/26 09:24:41;;;;;;;6.45;3.28;;;;;;;;;;5092150;28;20051;-67
2021/05/26 09:27:08;;;;;;;6.68;2.83;;;;;;;;;;5095720;28;20102;-67
2021/05/26 09:29:34;;;;;;;3.65;2.60;;;;;;;;;;5102924;28;20035;-68
2021/05/26 09:32:14;;;;;;;4.43;3.10;;;;;;;;;;5093176;28;20059;-67
2021/05/26 09:34:41;;;;;;;5.35;2.90;;;;;;;;;;5090591;28;20024;-68
2021/05/26 09:37:07;;;;;;;6.20;3.35;;;;;;;;;;5097448;28;20034;-69
2021/05/26 09:39:49;;;;;;;4.75;2.63;;;;;;;;;;5090919;28;20102;-66
2021/05/26 09:42:35;;;;;;;8.32;3.47;;;;;;;;;;5093799;28;20038;-67
2021/05/26 09:45:08;;;;;;;4.35;2.78;;;;;;;;;;5095585;28;20024;-68
2021/05/26 09:47:40;;;;;;;7.38;3.35;;;;;;;;;;5093629;28;20036;-70
2021/05/26 09:50:15;;;;;;;5.18;3.00;;;;;;;;;;5094737;28;20077;-69
2021/05/26 09:52:51;;;;;;;5.28;2.75;;;;;;;;;;5095913;28;20046;-70
2021/05/26 09:55:19;;;;;;;6.78;3.28;;;;;;;;;;5098497;28;20390;-71
2021/05/26 09:57:49;;;;;;;7.57;3.35;;;;;;;;;;5110177;28;20509;-70
2021/05/26 10:00:16;;;;;;;3.60;2.60;;;;;;;;;;5108897;28;20050;-69
2021/05/26 10:02:42;;;;;;;4.45;3.03;;;;;;;;;;5096606;28;20074;-66
2021/05/26 10:05:09;;;;;;;5.03;2.70;;;;;;;;;;5090155;28;20118;-66
2021/05/26 10:07:35;;;;;;;5.95;3.22;;;;;;;;;;5095471;28;20513;-66
2021/05/26 10:10:03;;;;;;;7.97;3.40;;;;;;;;;;5092867;28;20059;-69
2021/05/26 10:12:32;;;;;;;5.25;3.80;;;;;;;;;;5076502;28;20428;-69
2021/05/26 10:15:01;;;;;;;5.38;2.95;;;;;;;;;;5092290;28;20028;-69
2021/05/26 10:17:34;;;;;;;4.00;2.83;;;;;;;;;;5095892;28;20027;-69
2021/05/26 10:20:01;;;;;;;4.28;3.13;;;;;;;;;;5090016;28;20035;-67
2021/05/26 10:22:28;;;;;;;5.95;2.70;;;;;;;;;;5093247;28;20586;-68
2021/05/26 10:24:55;;;;;;;4.13;3.08;;;;;;;;;;5101263;28;20028;-67
2021/05/26 10:27:39;;;;;;;4.88;2.58;;;;;;;;;;5103833;28;20102;-68
2021/05/26 10:30:07;;;;;;;5.53;2.80;;;;;;;;;;5093411;28;20032;-66
2021/05/26 10:32:50;;;;;;;5.30;2.83;;;;;;;;;;5101545;28;20516;-69
2021/05/26 10:35:16;;;;;;;4.10;2.60;;;;;;;;;;5105585;28;20072;-69
2021/05/26 10:37:43;;;;;;;3.85;2.45;;;;;;;;;;5097356;28;20125;-68
2021/05/26 10:40:31;;;;;;;6.60;3.00;;;;;;;;;;5099332;28;20035;-69
2021/05/26 10:42:57;;;;;;;4.78;2.63;;;;;;;;;;5100977;28;20487;-68
2021/05/26 10:45:35;;;;;;;6.38;2.92;;;;;;;;;;5099292;28;20112;-68
2021/05/26 10:48:01;;;;;;;4.57;2.47;;;;;;;;;;5105458;28;20092;-68
2021/05/26 10:50:45;;;;;;;6.53;2.97;;;;;;;;;;5104207;28;20050;-68
2021/05/26 10:53:14;;;;;;;3.90;2.40;;;;;;;;;;5089221;28;20039;-68
2021/05/26 10:55:42;;;;;;;5.55;2.40;;;;;;;;;;5104749;28;20015;-69
2021/05/26 10:58:17;;;;;;;3.63;2.60;;;;;;;;;;5106513;28;20104;-68
2021/05/26 11:00:48;;;;;;;5.20;3.58;;;;;;;;;;5104718;28;20367;-68
2021/05/26 11:03:27;;;;;;;6.00;2.67;;;;;;;;;;5071319;28;20089;-68
2021/05/26 11:05:54;;;;;;;6.07;2.63;;;;;;;;;;5113107;28;20036;-67
2021/05/26 11:08:27;;;;;;;8.00;2.67;;;;;;;;;;5077653;28;20024;-69
2021/05/26 11:10:54;;;;;;;3.65;2.50;;;;;;;;;;5096632;28;20107;-68
2021/05/26 11:13:20;;;;;;;6.50;3.45;;;;;;;;;;5095152;28;20031;-68
2021/05/26 11:15:47;;;;;;;5.45;2.70;;;;;;;;;;5111504;28;20486;-68
2021/05/26 11:20:51;;;;;;;3.75;2.30;;;;;;;;;;5097098;28;20063;-68
2021/05/26 11:23:18;;;;;;;3.72;2.67;;;;;;;;;;5108563;28;20380;-68
2021/05/26 11:25:51;;;;;;;3.08;2.47;;;;;;;;;;5103245;28;20111;-69
2021/05/26 11:28:26;;;;;;;3.25;2.72;;;;;;;;;;5108572;28;20121;-69
2021/05/26 11:30:59;;;;;;;5.50;2.53;;;;;;;;;;5104984;28;20118;-69
2021/05/26 11:33:26;;;;;;;4.85;2.30;;;;;;;;;;5108805;28;20028;-68
2021/05/26 11:35:54;;;;;;;7.45;3.13;;;;;;;;;;5092727;28;20028;-68
2021/05/26 11:38:24;;;;;;;5.07;2.65;;;;;;;;;;5093973;28;20028;-69
2021/05/26 11:40:50;;;;;;;3.53;2.40;;;;;;;;;;5102480;28;20020;-68
2021/05/26 11:43:18;;;;;;;5.35;2.10;;;;;;;;;;5092692;28;20124;-68
2021/05/26 11:45:45;;;;;;;3.17;2.30;;;;;;;;;;5092974;28;20032;-68
2021/05/26 11:48:11;;;;;;;3.92;2.53;;;;;;;;;;5095530;28;20032;-68
2021/05/26 11:50:39;;;;;;;5.35;2.65;;;;;;;;;;5112348;28;20411;-68
2021/05/26 11:53:06;;;;;;;4.97;2.55;;;;;;;;;;5092180;28;20154;-69
2021/05/26 11:55:32;;;;;;;3.47;2.33;;;;;;;;;;5095693;28;20020;-69
2021/05/26 11:57:59;;;;;;;4.10;2.30;;;;;;;;;;5106045;28;20027;-68
2021/05/26 12:00:28;;;;;;;4.22;2.50;;;;;;;;;;5101483;28;20128;-69
2021/05/26 12:02:56;;;;;;;2.97;2.10;;;;;;;;;;5101334;28;20028;-70
2021/05/26 12:05:41;;;;;;;3.45;2.30;;;;;;;;;;5097604;28;20114;-66
2021/05/26 12:08:17;;;;;;;4.57;2.30;;;;;;;;;;5095732;28;20779;-69
2021/05/26 12:10:44;;;;;;;4.35;2.22;;;;;;;;;;5070114;28;20157;-69
2021/05/26 12:13:10;;;;;;;3.47;2.28;;;;;;;;;;5071418;28;20099;-68
2021/05/26 12:15:37;;;;;;;3.33;2.25;;;;;;;;;;5070265;28;20049;-69
2021/05/26 12:18:03;;;;;;;3.35;2.47;;;;;;;;;;5070627;28;20036;-69
2021/05/26 12:20:30;;;;;;;3.05;2.05;;;;;;;;;;5069990;28;20037;-68
2021/05/26 12:22:58;;;;;;;4.55;2.30;;;;;;;;;;5071321;28;20032;-69
2021/05/26 12:25:34;;;;;;;5.57;2.30;;;;;;;;;;5070687;28;20029;-68
2021/05/26 12:28:01;;;;;;;5.57;2.30;;;;;;;;;;5069628;28;20514;-68
2021/05/26 12:30:28;;;;;;;3.60;2.10;;;;;;;;;;5070415;28;20411;-68
2021/05/26 12:32:55;;;;;;;3.45;2.50;;;;;;;;;;5069898;28;20525;-68
2021/05/26 12:35:22;;;;;;;2.85;2.30;;;;;;;;;;5070893;28;20038;-67
2021/05/26 12:37:49;;;;;;;5.93;2.70;;;;;;;;;;5070378;28;20031;-70
2021/05/26 12:40:30;;;;;;;6.35;2.60;;;;;;;;;;5071030;28;20765;-69
2021/05/26 12:42:58;;;;;;;3.35;2.40;;;;;;;;;;5069529;28;20028;-68
2021/05/26 12:45:26;;;;;;;4.38;2.10;;;;;;;;;;5070344;28;20039;-69
2021/05/26 12:47:53;;;;;;;3.38;2.28;;;;;;;;;;5070688;28;20123;-70
2021/05/26 12:50:20;;;;;;;4.30;2.33;;;;;;;;;;5070117;28;20064;-69
2021/05/26 12:52:50;;;;;;;3.92;2.28;;;;;;;;;;5070504;28;20024;-66
2021/05/26 12:55:16;;;;;;;3.90;2.10;;;;;;;;;;5061198;28;20016;-68
2021/05/26 12:57:43;;;;;;;4.32;1.95;;;;;;;;;;5070010;28;20497;-68
2021/05/26 13:00:20;;;;;;;3.47;2.17;;;;;;;;;;5070450;28;20024;-68
2021/05/26 13:02:48;;;;;;;3.25;2.10;;;;;;;;;;5070325;28;20029;-69
2021/05/26 13:05:16;;;;;;;4.20;2.40;;;;;;;;;;5069052;28;20537;-69
2021/05/26 13:07:44;;;;;;;3.58;2.10;;;;;;;;;;5070070;28;20040;-68
2021/05/26 13:10:28;;;;;;;4.90;2.05;;;;;;;;;;5101978;28;20079;-70
2021/05/26 13:12:56;;;;;;;3.33;2.10;;;;;;;;;;5097112;28;20087;-69
2021/05/26 13:15:27;;;;;;;3.08;1.90;;;;;;;;;;5108613;28;20020;-70
2021/05/26 13:17:54;;;;;;;3.90;2.20;;;;;;;;;;5090802;28;20168;-69
2021/05/26 13:20:20;;;;;;;3.83;2.13;;;;;;;;;;5102872;28;20122;-69
2021/05/26 13:22:46;;;;;;;3.17;2.03;;;;;;;;;;5094088;28;20035;-69
2021/05/26 13:25:12;;;;;;;3.05;2.15;;;;;;;;;;5094067;28;20107;-69
2021/05/26 13:27:45;;;;;;;2.10;1.90;;;;;;;;;;5100850;28;20035;-68
2021/05/26 13:30:11;;;;;;;4.13;2.45;;;;;;;;;;5107250;28;20023;-69
2021/05/26 13:32:37;;;;;;;4.10;2.30;;;;;;;;;;5107232;28;20032;-70
2021/05/26 13:35:04;;;;;;;3.28;2.50;;;;;;;;;;5110090;28;20368;-70
2021/05/26 13:37:30;;;;;;;2.50;2.10;;;;;;;;;;5100282;28;20038;-69
2021/05/26 13:39:56;;;;;;;2.50;2.28;;;;;;;;;;5105076;28;20060;-72
2021/05/26 13:42:22;;;;;;;3.58;2.20;;;;;;;;;;5082914;28;20038;-72
2021/05/26 13:44:48;;;;;;;3.08;2.00;;;;;;;;;;5081941;28;20051;-71
2021/05/26 13:47:14;;;;;;;4.60;2.30;;;;;;;;;;5090508;28;20084;-71
2021/05/26 13:49:41;;;;;;;2.40;2.20;;;;;;;;;;5106857;28;20032;-71
2021/05/26 13:52:07;;;;;;;2.92;2.17;;;;;;;;;;5098864;28;20506;-72
2021/05/26 13:54:33;;;;;;;2.60;2.08;;;;;;;;;;5103403;28;20114;-70
2021/05/26 13:56:59;;;;;;;2.90;1.92;;;;;;;;;;5071328;28;20050;-70
2021/05/26 13:59:25;;;;;;;4.13;2.20;;;;;;;;;;5090747;28;20032;-72
2021/05/26 14:01:51;;;;;;;3.92;2.20;;;;;;;;;;5092538;28;20047;-71
2021/05/26 14:04:19;;;;;;;4.00;2.10;;;;;;;;;;5099411;28;20072;-72
2021/05/26 14:06:46;;;;;;;2.78;1.92;;;;;;;;;;5093553;28;20482;-69
2021/05/26 14:09:12;;;;;;;2.25;1.90;;;;;;;;;;5092861;28;20122;-69
2021/05/26 14:11:39;;;;;;;2.75;2.13;;;;;;;;;;5105746;28;20092;-70
2021/05/26 14:14:05;;;;;;;3.45;1.95;;;;;;;;;;5103179;28;20031;-70
2021/05/26 14:16:31;;;;;;;2.33;1.80;;;;;;;;;;5101102;28;20019;-69
2021/05/26 14:18:57;;;;;;;2.95;2.03;;;;;;;;;;5090344;28;20031;-70
2021/05/26 14:21:23;;;;;;;2.17;1.90;;;;;;;;;;5097696;28;20434;-68
2021/05/26 14:23:50;;;;;;;3.30;1.90;;;;;;;;;;5103228;28;20031;-71
2021/05/26 14:26:17;;;;;;;2.70;2.20;;;;;;;;;;5093974;28;20031;-71
2021/05/26 14:28:43;;;;;;;4.43;2.17;;;;;;;;;;5094495;27;20040;-70
2021/05/26 14:31:10;;;;;;;4.25;2.08;;;;;;;;;;5089090;28;20168;-70
2021/05/26 14:33:36;;;;;;;3.97;2.03;;;;;;;;;;5093797;28;20074;-68
2021/05/26 14:36:03;;;;;;;2.90;2.20;;;;;;;;;;5103339;28;20031;-72
2021/05/26 14:41:14;;;;;;;5.35;2.10;;;;;;;;;;5095133;28;20133;-69
2021/05/26 14:43:40;;;;;;;3.00;2.10;;;;;;;;;;5089000;28;20032;-70
2021/05/26 14:46:06;;;;;;;4.65;2.10;;;;;;;;;;5103665;28;20039;-70
2021/05/26 14:48:32;;;;;;;2.30;2.08;;;;;;;;;;5107558;28;20043;-69
2021/05/26 14:50:58;;;;;;;2.67;1.95;;;;;;;;;;5090593;28;20042;-69
2021/05/26 14:53:25;;;;;;;3.20;1.90;;;;;;;;;;5101351;28;20032;-67